createdAt,value
2019-03-03T00:00:41.798Z,10.70
2019-03-03T00:03:09.163Z,10.70
2019-03-03T00:05:36.533Z,10.70
2019-03-03T00:08:04.018Z,10.70
2019-03-03T00:10:31.495Z,10.80
2019-03-03T00:12:59.004Z,10.80
2019-03-03T00:15:26.478Z,10.80
2019-03-03T00:17:53.838Z,10.80
2019-03-03T00:20:21.420Z,10.80
2019-03-03T00:22:48.857Z,10.80
2019-03-03T00:25:16.345Z,10.80
2019-03-03T00:27:43.698Z,10.80
2019-03-03T00:30:12.573Z,10.80
2019-03-03T00:32:39.900Z,10.80
2019-03-03T00:35:07.323Z,10.70
2019-03-03T00:38:00.136Z,10.60
2019-03-03T00:40:34.259Z,10.50
2019-03-03T00:43:14.282Z,10.50
2019-03-03T00:46:07.318Z,10.40
2019-03-03T00:48:55.846Z,10.40
2019-03-03T00:51:42.800Z,10.40
2019-03-03T00:54:41.949Z,10.30
2019-03-03T00:57:26.409Z,10.40
2019-03-03T01:00:14.961Z,10.30
2019-03-03T01:02:57.539Z,10.40
2019-03-03T01:05:38.691Z,10.40
2019-03-03T01:08:24.722Z,10.40
2019-03-03T01:11:17.657Z,10.40
2019-03-03T01:14:03.329Z,10.40
2019-03-03T01:16:55.095Z,10.40
2019-03-03T01:19:48.151Z,10.40
2019-03-03T01:22:25.835Z,10.40
2019-03-03T01:24:56.859Z,10.40
2019-03-03T01:27:25.147Z,10.50
2019-03-03T01:29:52.695Z,10.50
2019-03-03T01:32:20.177Z,10.40
2019-03-03T01:34:47.633Z,10.40
2019-03-03T01:37:14.995Z,10.40
2019-03-03T01:39:42.437Z,10.40
2019-03-03T01:42:09.811Z,10.40
2019-03-03T01:44:37.307Z,10.50
2019-03-03T01:47:04.665Z,10.40
2019-03-03T01:49:32.024Z,10.40
2019-03-03T01:51:59.465Z,10.50
2019-03-03T01:54:26.917Z,10.50
2019-03-03T01:56:54.349Z,10.40
2019-03-03T01:59:21.851Z,10.40
2019-03-03T02:01:49.223Z,10.40
2019-03-03T02:04:16.647Z,10.40
2019-03-03T02:06:44.039Z,10.40
2019-03-03T02:09:22.865Z,10.40
2019-03-03T02:11:50.223Z,10.40
2019-03-03T02:14:17.708Z,10.40
2019-03-03T02:16:45.116Z,10.40
2019-03-03T02:19:12.578Z,10.40
2019-03-03T02:21:40.079Z,10.40
2019-03-03T02:24:07.545Z,10.40
2019-03-03T02:26:34.892Z,10.40
2019-03-03T02:29:03.060Z,10.40
2019-03-03T02:31:30.505Z,10.40
2019-03-03T02:33:57.940Z,10.50
2019-03-03T02:36:25.424Z,10.50
2019-03-03T02:38:52.911Z,10.50
2019-03-03T02:41:20.395Z,10.50
2019-03-03T02:43:47.736Z,10.50
2019-03-03T02:46:15.217Z,10.50
2019-03-03T02:48:42.655Z,10.50
2019-03-03T02:51:10.019Z,10.50
2019-03-03T02:53:37.485Z,10.50
2019-03-03T02:56:04.914Z,10.50
2019-03-03T02:58:32.287Z,10.50
2019-03-03T03:01:05.372Z,10.60
2019-03-03T03:03:32.860Z,10.60
2019-03-03T03:06:09.328Z,10.60
2019-03-03T03:08:55.061Z,10.60
2019-03-03T03:11:37.151Z,10.60
2019-03-03T03:14:10.660Z,10.60
2019-03-03T03:16:56.233Z,10.60
2019-03-03T03:19:43.195Z,10.60
2019-03-03T03:22:27.100Z,10.60
2019-03-03T03:25:29.120Z,10.70
2019-03-03T03:28:15.143Z,10.70
2019-03-03T03:31:03.361Z,10.70
2019-03-03T03:33:53.527Z,10.70
2019-03-03T03:36:40.567Z,10.70
2019-03-03T03:39:15.696Z,10.70
2019-03-03T03:41:54.095Z,10.70
2019-03-03T03:44:36.741Z,10.70
2019-03-03T03:47:21.777Z,10.70
2019-03-03T03:49:58.073Z,10.70
2019-03-03T03:52:50.484Z,10.70
2019-03-03T03:55:49.722Z,10.80
2019-03-03T03:58:23.286Z,10.80
2019-03-03T04:01:08.895Z,10.80
2019-03-03T04:03:47.406Z,10.80
2019-03-03T04:06:24.387Z,10.80
2019-03-03T04:09:01.670Z,10.80
2019-03-03T04:11:47.641Z,10.80
2019-03-03T04:14:34.590Z,10.80
2019-03-03T04:17:19.900Z,10.80
2019-03-03T04:20:26.408Z,10.80
2019-03-03T04:23:22.109Z,10.80
2019-03-03T04:26:24.153Z,10.80
2019-03-03T04:28:58.221Z,10.80
2019-03-03T04:31:40.439Z,10.80
2019-03-03T04:34:30.197Z,10.80
2019-03-03T04:37:15.647Z,10.80
2019-03-03T04:39:52.554Z,10.80
2019-03-03T04:42:29.732Z,10.80
2019-03-03T04:45:28.636Z,10.80
2019-03-03T04:48:18.667Z,10.80
2019-03-03T04:51:08.229Z,10.80
2019-03-03T04:53:47.024Z,10.80
2019-03-03T04:56:24.611Z,10.80
2019-03-03T04:59:10.207Z,10.80
2019-03-03T05:01:57.168Z,10.80
2019-03-03T05:04:55.980Z,10.80
2019-03-03T05:07:42.888Z,10.80
2019-03-03T05:10:32.810Z,10.80
2019-03-03T05:13:18.473Z,10.80
2019-03-03T05:16:05.441Z,10.80
2019-03-03T05:19:01.730Z,10.80
2019-03-03T05:21:29.151Z,10.80
2019-03-03T05:23:56.607Z,10.90
2019-03-03T05:26:24.073Z,10.90
2019-03-03T05:28:51.517Z,10.90
2019-03-03T05:31:18.961Z,10.90
2019-03-03T05:33:46.487Z,10.90
2019-03-03T05:36:13.939Z,10.90
2019-03-03T05:38:41.362Z,10.90
2019-03-03T05:41:08.843Z,11.00
2019-03-03T05:43:36.308Z,10.90
2019-03-03T05:46:03.812Z,11.00
2019-03-03T05:48:31.295Z,11.00
2019-03-03T05:50:58.730Z,11.00
2019-03-03T05:53:26.189Z,11.00
2019-03-03T05:55:53.693Z,11.00
2019-03-03T05:58:21.172Z,10.90
2019-03-03T06:00:48.586Z,10.90
2019-03-03T06:03:16.110Z,10.90
2019-03-03T06:05:43.531Z,10.90
2019-03-03T06:08:10.892Z,10.90
2019-03-03T06:10:38.383Z,10.80
2019-03-03T06:13:05.835Z,10.90
2019-03-03T06:15:33.294Z,10.90
2019-03-03T06:18:00.667Z,10.90
2019-03-03T06:20:28.004Z,10.90
2019-03-03T06:22:55.451Z,10.90
2019-03-03T06:25:22.926Z,10.90
2019-03-03T06:27:50.373Z,10.90
2019-03-03T06:30:19.856Z,10.90
2019-03-03T06:32:47.234Z,10.90
2019-03-03T06:35:14.693Z,10.80
2019-03-03T06:37:42.050Z,10.80
2019-03-03T06:40:15.371Z,10.70
2019-03-03T06:42:42.735Z,10.70
2019-03-03T06:45:10.515Z,10.70
2019-03-03T06:47:38.014Z,10.60
2019-03-03T06:50:07.232Z,10.60
2019-03-03T06:52:34.612Z,10.60
2019-03-03T06:55:01.989Z,10.50
2019-03-03T06:57:29.420Z,10.50
2019-03-03T06:59:56.866Z,10.40
2019-03-03T07:02:24.348Z,10.40
2019-03-03T07:04:51.762Z,10.40
2019-03-03T07:07:19.128Z,10.40
2019-03-03T07:09:46.594Z,10.40
2019-03-03T07:12:13.981Z,10.40
2019-03-03T07:14:41.300Z,10.40
2019-03-03T07:17:08.726Z,10.40
2019-03-03T07:19:36.139Z,10.40
2019-03-03T07:22:03.580Z,10.40
2019-03-03T07:24:30.990Z,10.50
2019-03-03T07:26:58.344Z,10.50
2019-03-03T07:29:25.698Z,10.50
2019-03-03T07:31:53.149Z,10.50
2019-03-03T07:34:20.614Z,10.50
2019-03-03T07:36:48.109Z,10.50
2019-03-03T07:39:18.849Z,10.50
2019-03-03T07:41:46.459Z,10.50
2019-03-03T07:44:13.933Z,10.50
2019-03-03T07:46:41.465Z,10.50
2019-03-03T07:49:08.831Z,10.50
2019-03-03T07:51:36.385Z,10.50
2019-03-03T07:54:03.969Z,10.50
2019-03-03T07:56:31.334Z,10.60
2019-03-03T07:58:58.869Z,10.60
2019-03-03T08:01:26.349Z,10.60
2019-03-03T08:03:53.716Z,10.60
2019-03-03T08:06:21.153Z,10.60
2019-03-03T08:08:48.606Z,10.70
2019-03-03T08:11:16.008Z,10.70
2019-03-03T08:13:43.737Z,10.70
2019-03-03T08:16:11.262Z,10.70
2019-03-03T08:18:38.717Z,10.70
2019-03-03T08:21:06.148Z,10.70
2019-03-03T08:23:33.707Z,10.80
2019-03-03T08:26:01.061Z,10.80
2019-03-03T08:28:28.560Z,10.70
2019-03-03T08:30:56.025Z,10.70
2019-03-03T08:33:23.370Z,10.70
2019-03-03T08:35:50.851Z,10.70
2019-03-03T08:38:18.440Z,10.70
2019-03-03T08:40:45.934Z,10.70
2019-03-03T08:43:31.516Z,10.70
2019-03-03T08:46:18.182Z,10.70
2019-03-03T08:48:53.417Z,10.70
2019-03-03T08:51:44.465Z,10.80
2019-03-03T08:54:42.538Z,10.70
2019-03-03T08:57:35.071Z,10.80
2019-03-03T09:00:21.820Z,10.80
2019-03-03T09:03:11.415Z,10.80
2019-03-03T09:05:57.153Z,10.80
2019-03-03T09:08:47.138Z,10.90
2019-03-03T09:11:51.105Z,10.90
2019-03-03T09:14:37.097Z,10.90
2019-03-03T09:17:49.483Z,11.00
2019-03-03T09:20:25.793Z,10.90
2019-03-03T09:23:02.656Z,11.00
2019-03-03T09:25:48.352Z,11.00
2019-03-03T09:28:33.994Z,11.00
2019-03-03T09:31:23.868Z,11.10
2019-03-03T09:34:18.306Z,11.10
2019-03-03T09:37:17.270Z,11.10
2019-03-03T09:40:22.194Z,11.20
2019-03-03T09:43:24.306Z,11.20
2019-03-03T09:46:14.332Z,11.20
2019-03-03T09:49:01.296Z,11.30
2019-03-03T09:51:47.098Z,11.30
2019-03-03T09:54:22.948Z,11.30
2019-03-03T09:57:12.934Z,11.30
2019-03-03T10:00:02.968Z,11.30
2019-03-03T10:02:49.803Z,11.20
2019-03-03T10:05:49.032Z,11.20
2019-03-03T10:08:45.734Z,11.20
2019-03-03T10:11:19.520Z,11.30
2019-03-03T10:14:05.168Z,11.30
2019-03-03T10:17:01.420Z,11.30
2019-03-03T10:19:46.978Z,11.30
2019-03-03T10:22:33.930Z,11.40
2019-03-03T10:25:17.211Z,11.40
2019-03-03T10:28:04.166Z,11.50
2019-03-03T10:33:38.511Z,11.50
2019-03-03T10:36:31.633Z,11.50
2019-03-03T10:39:08.408Z,11.50
2019-03-03T10:41:58.367Z,11.50
2019-03-03T10:45:03.427Z,11.50
2019-03-03T10:47:53.496Z,11.50
2019-03-03T10:50:40.537Z,11.50
2019-03-03T10:54:01.704Z,11.50
2019-03-03T10:56:21.126Z,11.50
2019-03-03T10:59:07.128Z,11.40
2019-03-03T11:02:01.633Z,11.40
2019-03-03T11:04:46.836Z,11.40
2019-03-03T11:07:19.785Z,11.40
2019-03-03T11:10:15.466Z,11.40
2019-03-03T11:13:05.173Z,11.40
2019-03-03T11:15:58.333Z,11.40
2019-03-03T11:18:58.559Z,11.40
2019-03-03T11:21:45.518Z,11.40
2019-03-03T11:24:44.335Z,11.50
2019-03-03T11:27:26.449Z,11.50
2019-03-03T11:30:09.264Z,11.50
2019-03-03T11:32:52.934Z,11.50
2019-03-03T11:35:58.152Z,11.60
2019-03-03T11:38:30.725Z,11.60
2019-03-03T11:41:08.261Z,11.70
2019-03-03T11:43:55.225Z,11.70
2019-03-03T11:46:30.438Z,11.70
2019-03-03T11:49:17.284Z,11.70
2019-03-03T11:51:55.230Z,11.80
2019-03-03T11:54:27.119Z,11.80
2019-03-03T11:57:09.211Z,11.80
2019-03-03T11:59:45.351Z,11.80
2019-03-03T12:02:53.585Z,11.80
2019-03-03T12:05:34.725Z,11.80
2019-03-03T12:08:20.327Z,11.80
2019-03-03T12:11:16.558Z,11.80
2019-03-03T12:14:18.406Z,11.80
2019-03-03T12:16:50.510Z,11.80
2019-03-03T12:19:28.055Z,11.90
2019-03-03T12:22:06.947Z,11.90
2019-03-03T12:24:51.107Z,11.90
2019-03-03T12:27:38.423Z,12.00
2019-03-03T12:30:35.565Z,12.00
2019-03-03T12:33:12.239Z,12.10
2019-03-03T12:35:48.259Z,12.10
2019-03-03T12:38:24.659Z,12.10
2019-03-03T12:41:11.570Z,12.20
2019-03-03T12:44:10.103Z,12.20
2019-03-03T12:47:01.008Z,12.30
2019-03-03T12:49:38.772Z,12.30
2019-03-03T12:52:20.038Z,12.30
2019-03-03T12:54:55.961Z,12.30
2019-03-03T12:57:35.175Z,12.30
2019-03-03T13:00:31.328Z,12.40
2019-03-03T13:03:13.172Z,12.30
2019-03-03T13:05:51.306Z,12.30
2019-03-03T13:08:32.754Z,12.30
2019-03-03T13:11:28.420Z,12.40
2019-03-03T13:14:13.950Z,12.40
2019-03-03T13:16:56.092Z,12.50
2019-03-03T13:19:38.041Z,12.50
2019-03-03T13:22:15.360Z,12.60
2019-03-03T13:24:53.224Z,12.60
2019-03-03T13:27:43.007Z,12.70
2019-03-03T13:30:32.024Z,12.60
2019-03-03T13:33:37.232Z,12.60
2019-03-03T13:36:23.386Z,12.70
2019-03-03T13:39:09.412Z,12.70
2019-03-03T13:42:05.644Z,12.70
2019-03-03T13:44:33.096Z,12.80
2019-03-03T13:47:00.536Z,12.80
2019-03-03T13:49:27.892Z,12.90
2019-03-03T13:51:55.253Z,12.90
2019-03-03T13:54:24.721Z,13.00
2019-03-03T13:56:52.138Z,13.10
2019-03-03T13:59:19.500Z,13.10
2019-03-03T14:01:46.924Z,13.10
2019-03-03T14:04:14.279Z,13.10
2019-03-03T14:06:41.836Z,13.20
2019-03-03T14:09:09.392Z,13.20
2019-03-03T14:11:36.747Z,13.20
2019-03-03T14:14:04.622Z,13.20
2019-03-03T14:16:32.090Z,13.20
2019-03-03T14:18:59.548Z,13.20
2019-03-03T14:21:27.077Z,13.20
2019-03-03T14:23:54.553Z,13.20
2019-03-03T14:26:22.078Z,13.20
2019-03-03T14:28:49.564Z,13.20
2019-03-03T14:31:17.039Z,13.20
2019-03-03T14:33:44.474Z,13.20
2019-03-03T14:36:11.959Z,13.20
2019-03-03T14:38:39.282Z,13.20
2019-03-03T14:41:06.668Z,13.20
2019-03-03T14:43:34.004Z,13.20
2019-03-03T14:46:01.440Z,13.20
2019-03-03T14:48:28.823Z,13.30
2019-03-03T14:50:56.294Z,13.30
2019-03-03T14:53:23.656Z,13.30
2019-03-03T14:55:51.103Z,13.30
2019-03-03T14:58:18.798Z,13.40
2019-03-03T15:00:46.376Z,13.40
2019-03-03T15:03:13.937Z,13.40
2019-03-03T15:05:41.419Z,13.40
2019-03-03T15:08:08.880Z,13.40
2019-03-03T15:10:36.289Z,13.40
2019-03-03T15:13:03.689Z,13.40
2019-03-03T15:15:31.861Z,13.40
2019-03-03T15:17:59.217Z,13.30
2019-03-03T15:20:26.767Z,13.30
2019-03-03T15:22:54.230Z,13.30
2019-03-03T15:25:21.627Z,13.30
2019-03-03T15:27:49.003Z,13.30
2019-03-03T15:30:17.728Z,13.30
2019-03-03T15:32:45.375Z,13.30
2019-03-03T15:35:12.955Z,13.30
2019-03-03T15:37:40.284Z,13.30
2019-03-03T15:40:08.945Z,13.40
2019-03-03T15:42:36.395Z,13.40
2019-03-03T15:45:04.273Z,13.40
2019-03-03T15:47:31.660Z,13.40
2019-03-03T15:49:59.005Z,13.40
2019-03-03T15:52:26.371Z,13.40
2019-03-03T15:54:53.815Z,13.40
2019-03-03T15:57:21.295Z,13.40
2019-03-03T15:59:48.769Z,13.30
2019-03-03T16:02:16.178Z,13.30
2019-03-03T16:04:43.640Z,13.20
2019-03-03T16:07:11.088Z,13.20
2019-03-03T16:09:38.564Z,13.20
2019-03-03T16:12:06.023Z,13.20
2019-03-03T16:14:33.370Z,13.20
2019-03-03T16:17:00.850Z,13.20
2019-03-03T16:19:28.353Z,13.20
2019-03-03T16:21:55.822Z,13.20
2019-03-03T16:24:23.242Z,13.20
2019-03-03T16:26:50.605Z,13.20
2019-03-03T16:29:17.950Z,13.20
2019-03-03T16:31:45.417Z,13.10
2019-03-03T16:34:12.916Z,13.10
2019-03-03T16:36:40.289Z,13.20
2019-03-03T16:39:07.846Z,13.10
2019-03-03T16:41:35.298Z,13.10
2019-03-03T16:44:02.648Z,13.10
2019-03-03T16:46:30.112Z,13.10
2019-03-03T16:48:57.587Z,13.10
2019-03-03T16:51:28.003Z,13.10
2019-03-03T16:53:55.437Z,13.10
2019-03-03T16:56:22.911Z,13.10
2019-03-03T16:58:50.344Z,13.00
2019-03-03T17:01:17.771Z,13.00
2019-03-03T17:03:45.205Z,13.00
2019-03-03T17:06:12.645Z,13.00
2019-03-03T17:08:40.107Z,12.90
2019-03-03T17:11:07.633Z,12.90
2019-03-03T17:13:35.049Z,12.80
2019-03-03T17:16:02.362Z,12.80
2019-03-03T17:18:29.835Z,12.80
2019-03-03T17:20:57.269Z,12.70
2019-03-03T17:23:24.701Z,12.70
2019-03-03T17:25:52.543Z,12.60
2019-03-03T17:28:20.166Z,12.60
2019-03-03T17:30:47.619Z,12.60
2019-03-03T17:33:34.814Z,12.60
2019-03-03T17:36:02.274Z,12.60
2019-03-03T17:38:29.955Z,12.50
2019-03-03T17:40:57.388Z,12.50
2019-03-03T17:43:24.886Z,12.50
2019-03-03T17:45:52.318Z,12.50
2019-03-03T17:48:19.925Z,12.50
2019-03-03T17:50:47.366Z,12.50
2019-03-03T17:53:14.706Z,12.50
2019-03-03T17:55:42.113Z,12.50
2019-03-03T17:58:10.768Z,12.50
2019-03-03T18:00:39.527Z,12.50
2019-03-03T18:03:06.953Z,12.50
2019-03-03T18:05:34.531Z,12.60
2019-03-03T18:08:01.926Z,12.60
2019-03-03T18:10:29.307Z,12.60
2019-03-03T18:12:56.812Z,12.60
2019-03-03T18:15:24.236Z,12.70
2019-03-03T18:17:51.697Z,12.70
2019-03-03T18:20:19.076Z,12.60
2019-03-03T18:22:46.399Z,12.50
2019-03-03T18:25:14.651Z,12.50
2019-03-03T18:27:42.226Z,12.50
2019-03-03T18:30:13.222Z,12.50
2019-03-03T18:32:40.672Z,12.50
2019-03-03T18:35:08.345Z,12.50
2019-03-03T18:37:35.775Z,12.60
2019-03-03T18:40:04.068Z,12.60
2019-03-03T18:42:31.530Z,12.60
2019-03-03T18:44:58.962Z,12.60
2019-03-03T18:47:26.428Z,12.70
2019-03-03T18:49:53.954Z,12.70
2019-03-03T18:52:21.516Z,12.70
2019-03-03T18:54:48.989Z,12.80
2019-03-03T18:57:17.609Z,12.80
2019-03-03T18:59:44.947Z,12.80
2019-03-03T19:02:13.605Z,12.80
2019-03-03T19:04:41.039Z,12.80
2019-03-03T19:07:08.405Z,12.80
2019-03-03T19:09:35.847Z,12.90
2019-03-03T19:12:03.438Z,12.80
2019-03-03T19:14:30.800Z,12.90
2019-03-03T19:16:58.269Z,12.80
2019-03-03T19:19:25.748Z,12.80
2019-03-03T19:21:53.188Z,12.80
2019-03-03T19:24:20.557Z,12.80
2019-03-03T19:26:47.939Z,12.90
2019-03-03T19:29:15.376Z,12.90
2019-03-03T19:31:42.909Z,12.90
2019-03-03T19:34:10.307Z,13.00
2019-03-03T19:36:37.738Z,13.00
2019-03-03T19:39:05.485Z,13.00
2019-03-03T19:41:33.329Z,13.00
2019-03-03T19:44:00.791Z,13.00
2019-03-03T19:46:28.229Z,13.00
2019-03-03T19:48:55.581Z,13.00
2019-03-03T19:51:23.186Z,13.00
2019-03-03T19:53:50.608Z,13.00
2019-03-03T19:56:18.170Z,13.00
2019-03-03T19:58:45.516Z,13.00
2019-03-03T20:01:12.955Z,13.00
2019-03-03T20:03:40.399Z,13.00
2019-03-03T20:06:10.338Z,13.00
2019-03-03T20:08:37.843Z,13.00
2019-03-03T20:11:05.417Z,13.00
2019-03-03T20:13:32.800Z,13.00
2019-03-03T20:16:00.217Z,13.00
2019-03-03T20:18:27.669Z,13.00
2019-03-03T20:20:55.019Z,13.00
2019-03-03T20:23:22.507Z,13.00
2019-03-03T20:25:49.983Z,13.00
2019-03-03T20:28:17.431Z,13.00
2019-03-03T20:30:45.405Z,13.00
2019-03-03T20:33:12.926Z,13.00
2019-03-03T20:35:40.360Z,13.00
2019-03-03T20:38:07.818Z,13.00
2019-03-03T20:40:35.318Z,13.10
2019-03-03T20:43:02.849Z,13.10
2019-03-03T20:45:31.437Z,13.10
2019-03-03T20:47:58.931Z,13.00
2019-03-03T20:50:28.699Z,13.00
2019-03-03T20:52:56.987Z,13.00
2019-03-03T20:55:24.513Z,13.00
2019-03-03T20:57:52.003Z,13.00
2019-03-03T21:00:21.215Z,13.00
2019-03-03T21:02:48.775Z,13.00
2019-03-03T21:05:16.340Z,13.00
2019-03-03T21:07:51.307Z,12.90
2019-03-03T21:10:17.374Z,12.90
2019-03-03T21:12:46.456Z,12.80
2019-03-03T21:15:13.828Z,12.80
2019-03-03T21:17:44.037Z,12.70
2019-03-03T21:20:13.169Z,12.70
2019-03-03T21:22:40.570Z,12.70
2019-03-03T21:25:28.342Z,12.70
2019-03-03T21:27:56.757Z,12.70
2019-03-03T21:30:25.781Z,12.60
2019-03-03T21:32:53.663Z,12.60
2019-03-03T21:35:21.736Z,12.60
2019-03-03T21:37:49.401Z,12.60
2019-03-03T21:40:17.435Z,12.70
2019-03-03T21:42:47.504Z,12.70
2019-03-03T21:45:16.359Z,12.60
2019-03-03T21:47:43.869Z,12.60
2019-03-03T21:50:13.341Z,12.60
2019-03-03T21:52:40.820Z,12.70
2019-03-03T21:55:08.277Z,12.70
2019-03-03T21:57:35.689Z,12.70
2019-03-03T22:00:08.406Z,12.60
2019-03-03T22:02:35.868Z,12.60
2019-03-03T22:05:03.334Z,12.60
2019-03-03T22:07:30.698Z,12.60
2019-03-03T22:09:58.184Z,12.60
2019-03-03T22:12:26.045Z,12.50
2019-03-03T22:14:53.497Z,12.50
2019-03-03T22:17:20.955Z,12.60
2019-03-03T22:19:48.406Z,12.60
2019-03-03T22:22:15.845Z,12.60
2019-03-03T22:24:43.192Z,12.60
2019-03-03T22:27:10.846Z,12.60
2019-03-03T22:29:38.310Z,12.60
2019-03-03T22:32:05.734Z,12.60
2019-03-03T22:34:33.173Z,12.60
2019-03-03T22:37:00.605Z,12.60
2019-03-03T22:39:27.913Z,12.60
2019-03-03T22:41:55.790Z,12.60
2019-03-03T22:44:23.361Z,12.70
2019-03-03T22:46:50.849Z,12.70
2019-03-03T22:49:18.189Z,12.70
2019-03-03T22:51:45.576Z,12.70
2019-03-03T22:54:13.055Z,12.70
2019-03-03T22:56:40.492Z,12.70
2019-03-03T22:59:07.827Z,12.70
2019-03-03T23:01:38.771Z,12.70
2019-03-03T23:04:50.080Z,12.70
2019-03-03T23:07:25.026Z,12.80
2019-03-03T23:10:49.491Z,12.80
2019-03-03T23:13:34.500Z,12.80
2019-03-03T23:16:20.795Z,12.80
2019-03-03T23:19:30.267Z,12.80
2019-03-03T23:22:28.895Z,12.90
2019-03-03T23:25:53.419Z,12.80
2019-03-03T23:28:31.227Z,12.90
2019-03-03T23:30:58.570Z,12.90
2019-03-03T23:33:26.039Z,12.80
2019-03-03T23:35:53.417Z,12.80
2019-03-03T23:38:20.762Z,12.90
2019-03-03T23:40:48.093Z,12.90
2019-03-03T23:43:15.538Z,12.90
2019-03-03T23:45:43.027Z,12.90
2019-03-03T23:48:10.467Z,12.90
2019-03-03T23:50:38.033Z,12.90
2019-03-03T23:53:05.369Z,13.00
2019-03-03T23:55:32.721Z,12.90
2019-03-03T23:58:00.073Z,12.90
